Date,TemperatureHighF,TemperatureAvgF,TemperatureLowF,DewpointHighF,DewpointAvgF,DewpointLowF,HumidityHigh,HumidityAvg,HumidityLow,PressureMaxIn,PressureMinIn,WindSpeedMaxMPH,WindSpeedAvgMPH,GustSpeedMaxMPH,PrecipitationSumIn
2013-6-1,91.4,76.1,59.4,68.7,63.1,59.1,99,68,36,30.21,30.06,8,2,16,0.01
2013-6-2,74.8,68.6,64.4,70.0,66.3,61.7,99,93,65,30.12,30.01,8,1,10,0.64
2013-6-3,81.9,70.7,61.2,70.0,64.4,60.4,99,82,57,30.12,30.00,8,2,11,0.04
2013-6-4,90.3,70.8,55.6,64.8,60.1,55.1,99,73,41,30.17,30.10,8,1,11,0.00
2013-6-5,93.6,72.6,57.7,68.0,63.6,57.5,99,77,41,30.19,30.03,8,1,10,0.12
2013-6-6,87.1,72.7,64.2,70.7,66.4,63.4,99,83,52,30.09,29.89,7,1,12,0.01
2013-6-7,79.7,70.8,63.3,70.6,66.3,62.0,99,87,61,29.98,29.83,11,1,14,0.28
2013-6-8,86.0,71.0,59.5,67.2,63.3,59.3,99,79,46,30.20,29.98,8,1,12,0.08
2013-6-9,89.2,71.3,58.8,69.9,64.3,58.6,99,82,43,30.26,30.12,8,1,11,0.20
2013-6-10,80.6,71.3,64.6,71.8,66.6,61.8,99,86,55,30.14,30.00,12,2,18,0.20
2013-6-11,84.7,71.6,60.6,67.1,63.9,60.2,99,79,50,30.15,30.03,13,2,17,0.18
2013-6-12,92.5,77.6,61.5,77.1,70.0,61.0,99,79,53,30.16,30.04,7,2,11,0.00
2013-6-13,84.6,72.5,65.5,74.5,69.0,58.8,99,89,69,30.05,29.86,16,2,23,0.26
2013-6-14,82.2,67.4,52.7,62.9,56.9,52.2,99,73,41,30.19,29.99,11,2,14,0.02
2013-6-15,87.3,69.6,51.6,63.5,58.3,51.3,99,72,41,30.27,30.16,9,1,11,0.00
2013-6-16,85.8,72.1,58.3,69.4,64.2,58.0,99,79,52,30.25,30.12,10,1,17,0.00
2013-6-17,87.3,73.7,63.9,71.8,68.0,63.0,99,83,57,30.18,30.06,11,1,16,0.15
2013-6-18,77.2,68.9,61.9,69.4,66.4,61.3,99,92,66,30.09,29.98,10,1,13,0.89
2013-6-19,87.8,69.9,59.2,69.3,63.0,58.9,99,82,46,30.22,30.07,6,1,8,0.00
2013-6-20,90.9,73.4,57.7,68.5,63.9,57.5,99,76,42,30.32,30.22,6,1,10,0.00
2013-6-21,91.4,74.8,60.6,68.9,64.7,60.2,99,74,42,31.83,30.26,8,1,115,0.01
2013-6-22,92.3,74.4,58.5,66.4,60.5,53.6,99,68,31,30.36,30.21,8,1,12,0.00
2013-6-23,92.7,75.4,58.8,68.3,63.5,58.6,99,71,38,30.34,30.22,7,1,9,0.00
2013-6-24,91.2,76.0,62.6,72.1,66.8,61.8,99,76,46,30.34,30.21,8,1,13,0.00
2013-6-25,86.7,73.9,63.9,72.3,67.8,63.0,99,83,56,30.28,30.15,9,1,14,0.01
2013-6-26,88.3,72.9,63.9,74.5,68.5,63.0,99,87,57,30.17,30.04,8,1,14,0.09
2013-6-27,84.6,70.8,64.8,73.9,68.1,63.8,99,92,67,30.08,29.91,10,1,20,1.30
2013-6-28,87.1,73.8,65.1,73.1,69.1,64.6,98,86,60,29.95,29.79,13,2,20,0.08
2013-6-29,85.8,73.1,61.7,67.5,64.0,59.4,99,77,45,29.86,29.79,11,2,15,0.01
2013-6-30,90.0,74.2,59.0,67.5,63.2,58.6,99,73,39,29.96,29.84,9,1,11,0.35